Time;durP1;ratioP1;P1;durP2;ratioP2;P2;SDS_P1;SDS_P2;PMS_P1;PMS_P2;Temp;Humidity;BMP_temperature;BMP_pressure;BME280_temperature;BME280_humidity;BME280_pressure;Samples;Min_cycle;Max_cycle;Signal;HPM_P1;HPM_P2
2021/12/07 00:00:10;;;;;;;;;;;0.2;75.9;;;;;;;;;
2021/12/07 00:05:08;;;;;;;;;;;0.1;76.2;;;;;;;;;
2021/12/07 00:10:08;;;;;;;;;;;0.1;76.3;;;;;;;;;
2021/12/07 00:15:11;;;;;;;;;;;0.1;76.0;;;;;;;;;
2021/12/07 00:20:10;;;;;;;;;;;-0.1;76.7;;;;;;;;;
2021/12/07 00:25:09;;;;;;;;;;;-0.1;76.9;;;;;;;;;
2021/12/07 00:30:09;;;;;;;;;;;-0.1;77.3;;;;;;;;;
2021/12/07 00:35:34;;;;;;;;;;;-0.1;77.0;;;;;;;;;
2021/12/07 00:40:09;;;;;;;;;;;-0.1;77.0;;;;;;;;;
2021/12/07 00:45:09;;;;;;;;;;;-0.1;76.9;;;;;;;;;
2021/12/07 00:50:09;;;;;;;;;;;-0.1;77.5;;;;;;;;;
2021/12/07 00:55:10;;;;;;;;;;;-0.2;77.3;;;;;;;;;
2021/12/07 01:00:09;;;;;;;;;;;-0.1;76.9;;;;;;;;;
2021/12/07 01:05:14;;;;;;;;;;;-0.1;76.7;;;;;;;;;
2021/12/07 01:25:08;;;;;;;;;;;-0.1;76.1;;;;;;;;;
2021/12/07 01:30:14;;;;;;;;;;;0.0;75.6;;;;;;;;;
2021/12/07 01:35:34;;;;;;;;;;;0.0;75.5;;;;;;;;;
2021/12/07 01:40:35;;;;;;;;;;;-0.1;75.3;;;;;;;;;
2021/12/07 01:45:35;;;;;;;;;;;-0.1;75.1;;;;;;;;;
2021/12/07 01:50:31;;;;;;;;;;;0.0;74.3;;;;;;;;;
2021/12/07 02:00:10;;;;;;;;;;;0.0;73.7;;;;;;;;;
2021/12/07 02:05:08;;;;;;;;;;;0.0;73.5;;;;;;;;;
2021/12/07 02:15:08;;;;;;;;;;;-0.1;73.1;;;;;;;;;
2021/12/07 02:20:09;;;;;;;;;;;-0.1;72.9;;;;;;;;;
2021/12/07 02:25:10;;;;;;;;;;;-0.1;72.6;;;;;;;;;
2021/12/07 02:30:10;;;;;;;;;;;-0.1;73.1;;;;;;;;;
2021/12/07 02:35:10;;;;;;;;;;;-0.1;72.4;;;;;;;;;
2021/12/07 02:40:09;;;;;;;;;;;-0.1;72.5;;;;;;;;;
2021/12/07 02:45:08;;;;;;;;;;;-0.1;71.6;;;;;;;;;
2021/12/07 02:50:08;;;;;;;;;;;-0.1;71.3;;;;;;;;;
2021/12/07 02:55:09;;;;;;;;;;;-0.1;70.7;;;;;;;;;
2021/12/07 03:00:10;;;;;;;;;;;0.0;71.1;;;;;;;;;
2021/12/07 03:05:20;;;;;;;;;;;0.1;71.1;;;;;;;;;
2021/12/07 03:25:52;;;;;;;;;;;0.1;70.4;;;;;;;;;
2021/12/07 03:26:01;;;;;;;;;;;-0.2;74.1;;;;;;;;;
2021/12/07 03:30:08;;;;;;;;;;;-0.2;76.8;;;;;;;;;
2021/12/07 03:35:08;;;;;;;;;;;-0.3;79.1;;;;;;;;;
2021/12/07 03:40:09;;;;;;;;;;;-0.4;80.4;;;;;;;;;
2021/12/07 03:45:08;;;;;;;;;;;-0.4;81.4;;;;;;;;;
2021/12/07 03:50:09;;;;;;;;;;;-0.4;81.9;;;;;;;;;
2021/12/07 03:55:08;;;;;;;;;;;-0.4;81.7;;;;;;;;;
2021/12/07 04:00:09;;;;;;;;;;;-0.4;82.2;;;;;;;;;
2021/12/07 04:05:12;;;;;;;;;;;-0.4;82.6;;;;;;;;;
2021/12/07 04:10:09;;;;;;;;;;;-0.4;82.9;;;;;;;;;
2021/12/07 04:20:10;;;;;;;;;;;-0.4;82.6;;;;;;;;;
2021/12/07 04:25:09;;;;;;;;;;;-0.3;82.5;;;;;;;;;
2021/12/07 04:30:09;;;;;;;;;;;-0.3;82.6;;;;;;;;;
2021/12/07 04:35:10;;;;;;;;;;;-0.3;82.2;;;;;;;;;
2021/12/07 04:40:11;;;;;;;;;;;-0.3;83.3;;;;;;;;;
2021/12/07 04:45:13;;;;;;;;;;;-0.3;84.2;;;;;;;;;
2021/12/07 04:50:22;;;;;;;;;;;-0.3;84.5;;;;;;;;;
2021/12/07 04:57:37;;;;;;;;;;;-0.2;84.6;;;;;;;;;
2021/12/07 05:00:09;;;;;;;;;;;-0.2;84.9;;;;;;;;;
2021/12/07 05:05:10;;;;;;;;;;;-0.2;84.8;;;;;;;;;
2021/12/07 05:10:18;;;;;;;;;;;0.0;84.7;;;;;;;;;
2021/12/07 05:15:18;;;;;;;;;;;0.0;84.5;;;;;;;;;
2021/12/07 05:25:50;;;;;;;;;;;0.1;83.9;;;;;;;;;
2021/12/07 05:40:10;;;;;;;;;;;0.2;84.2;;;;;;;;;
2021/12/07 05:45:09;;;;;;;;;;;0.3;84.6;;;;;;;;;
2021/12/07 05:50:09;;;;;;;;;;;0.4;84.4;;;;;;;;;
2021/12/07 05:55:08;;;;;;;;;;;0.4;83.7;;;;;;;;;
2021/12/07 06:05:08;;;;;;;;;;;0.5;82.5;;;;;;;;;
2021/12/07 06:10:08;;;;;;;;;;;0.5;82.2;;;;;;;;;
2021/12/07 06:15:09;;;;;;;;;;;0.5;81.8;;;;;;;;;
2021/12/07 06:25:10;;;;;;;;;;;0.6;81.0;;;;;;;;;
2021/12/07 06:30:09;;;;;;;;;;;0.6;80.5;;;;;;;;;
2021/12/07 06:35:09;;;;;;;;;;;0.6;80.6;;;;;;;;;
2021/12/07 06:40:10;;;;;;;;;;;0.6;80.8;;;;;;;;;
2021/12/07 06:45:10;;;;;;;;;;;0.7;80.8;;;;;;;;;
2021/12/07 06:50:09;;;;;;;;;;;0.7;80.6;;;;;;;;;
2021/12/07 07:00:11;;;;;;;;;;;0.8;80.3;;;;;;;;;
2021/12/07 07:05:08;;;;;;;;;;;0.8;80.6;;;;;;;;;
2021/12/07 07:10:09;;;;;;;;;;;0.8;80.2;;;;;;;;;
2021/12/07 07:15:08;;;;;;;;;;;0.9;79.8;;;;;;;;;
2021/12/07 07:20:10;;;;;;;;;;;0.9;79.7;;;;;;;;;
2021/12/07 07:30:10;;;;;;;;;;;1.0;79.3;;;;;;;;;
2021/12/07 07:35:09;;;;;;;;;;;1.0;79.0;;;;;;;;;
2021/12/07 07:40:10;;;;;;;;;;;1.1;78.9;;;;;;;;;
2021/12/07 07:45:08;;;;;;;;;;;1.1;78.8;;;;;;;;;
2021/12/07 07:50:09;;;;;;;;;;;1.2;79.1;;;;;;;;;
2021/12/07 07:55:09;;;;;;;;;;;1.1;78.7;;;;;;;;;
2021/12/07 08:00:10;;;;;;;;;;;1.2;78.9;;;;;;;;;
2021/12/07 08:05:08;;;;;;;;;;;1.2;78.7;;;;;;;;;
2021/12/07 08:10:08;;;;;;;;;;;1.2;77.5;;;;;;;;;
2021/12/07 08:15:08;;;;;;;;;;;1.3;77.7;;;;;;;;;
2021/12/07 08:20:08;;;;;;;;;;;1.4;77.0;;;;;;;;;
2021/12/07 08:25:08;;;;;;;;;;;1.6;76.0;;;;;;;;;
2021/12/07 08:30:09;;;;;;;;;;;1.5;75.8;;;;;;;;;
2021/12/07 08:35:08;;;;;;;;;;;1.9;74.6;;;;;;;;;
2021/12/07 08:40:09;;;;;;;;;;;2.3;73.1;;;;;;;;;
2021/12/07 08:45:08;;;;;;;;;;;2.7;72.0;;;;;;;;;
2021/12/07 08:50:10;;;;;;;;;;;2.8;71.1;;;;;;;;;
2021/12/07 09:00:09;;;;;;;;;;;3.8;67.3;;;;;;;;;
2021/12/07 09:05:10;;;;;;;;;;;4.5;64.4;;;;;;;;;
2021/12/07 09:10:08;;;;;;;;;;;5.8;60.4;;;;;;;;;
2021/12/07 09:15:08;;;;;;;;;;;4.4;63.6;;;;;;;;;
2021/12/07 09:20:11;;;;;;;;;;;3.4;67.5;;;;;;;;;
2021/12/07 09:25:08;;;;;;;;;;;2.7;72.2;;;;;;;;;
2021/12/07 09:30:10;;;;;;;;;;;2.7;72.5;;;;;;;;;
2021/12/07 09:35:08;;;;;;;;;;;4.0;67.9;;;;;;;;;
2021/12/07 09:40:10;;;;;;;;;;;4.0;66.8;;;;;;;;;
2021/12/07 09:45:09;;;;;;;;;;;4.2;66.2;;;;;;;;;
2021/12/07 09:50:09;;;;;;;;;;;4.7;63.8;;;;;;;;;
2021/12/07 09:55:08;;;;;;;;;;;4.2;64.9;;;;;;;;;
2021/12/07 10:00:10;;;;;;;;;;;5.2;63.9;;;;;;;;;
2021/12/07 10:05:08;;;;;;;;;;;6.8;57.9;;;;;;;;;
2021/12/07 10:10:16;;;;;;;;;;;6.9;56.3;;;;;;;;;
2021/12/07 10:15:10;;;;;;;;;;;8.3;53.0;;;;;;;;;
2021/12/07 10:20:25;;;;;;;;;;;9.8;48.0;;;;;;;;;
2021/12/07 10:25:08;;;;;;;;;;;10.0;46.8;;;;;;;;;
2021/12/07 10:30:09;;;;;;;;;;;10.8;45.2;;;;;;;;;
2021/12/07 10:35:25;;;;;;;;;;;9.4;47.6;;;;;;;;;
2021/12/07 10:40:11;;;;;;;;;;;8.5;49.4;;;;;;;;;
2021/12/07 10:45:08;;;;;;;;;;;10.1;46.0;;;;;;;;;
2021/12/07 10:50:09;;;;;;;;;;;10.9;43.7;;;;;;;;;
2021/12/07 10:55:10;;;;;;;;;;;11.0;42.9;;;;;;;;;
2021/12/07 11:00:15;;;;;;;;;;;12.4;40.4;;;;;;;;;
2021/12/07 11:05:10;;;;;;;;;;;9.9;44.9;;;;;;;;;
2021/12/07 11:10:11;;;;;;;;;;;8.1;49.0;;;;;;;;;
2021/12/07 11:15:17;;;;;;;;;;;7.7;50.8;;;;;;;;;
2021/12/07 11:20:08;;;;;;;;;;;8.7;49.3;;;;;;;;;
2021/12/07 11:25:09;;;;;;;;;;;7.6;50.9;;;;;;;;;
2021/12/07 11:30:09;;;;;;;;;;;6.7;52.2;;;;;;;;;
2021/12/07 11:35:11;;;;;;;;;;;6.4;53.3;;;;;;;;;
2021/12/07 11:40:09;;;;;;;;;;;5.9;54.6;;;;;;;;;
2021/12/07 11:45:11;;;;;;;;;;;5.3;56.7;;;;;;;;;
2021/12/07 11:50:11;;;;;;;;;;;5.1;58.1;;;;;;;;;
2021/12/07 11:55:09;;;;;;;;;;;5.0;57.9;;;;;;;;;
2021/12/07 12:00:10;;;;;;;;;;;4.9;59.3;;;;;;;;;
2021/12/07 12:05:08;;;;;;;;;;;4.7;59.0;;;;;;;;;
2021/12/07 12:10:09;;;;;;;;;;;4.6;59.0;;;;;;;;;
2021/12/07 12:15:17;;;;;;;;;;;4.6;59.2;;;;;;;;;
2021/12/07 12:20:11;;;;;;;;;;;4.7;59.2;;;;;;;;;
2021/12/07 12:25:11;;;;;;;;;;;5.2;58.3;;;;;;;;;
2021/12/07 12:30:16;;;;;;;;;;;5.7;56.5;;;;;;;;;
2021/12/07 12:35:09;;;;;;;;;;;6.1;55.4;;;;;;;;;
2021/12/07 12:40:10;;;;;;;;;;;7.0;52.4;;;;;;;;;
2021/12/07 12:45:18;;;;;;;;;;;6.6;52.8;;;;;;;;;
2021/12/07 12:50:12;;;;;;;;;;;7.0;51.7;;;;;;;;;
2021/12/07 12:55:25;;;;;;;;;;;7.3;51.6;;;;;;;;;
2021/12/07 13:00:08;;;;;;;;;;;7.5;49.4;;;;;;;;;
2021/12/07 13:05:10;;;;;;;;;;;7.5;49.3;;;;;;;;;
2021/12/07 13:10:08;;;;;;;;;;;7.5;49.2;;;;;;;;;
2021/12/07 13:15:09;;;;;;;;;;;7.6;49.1;;;;;;;;;
2021/12/07 13:20:11;;;;;;;;;;;7.2;49.5;;;;;;;;;
2021/12/07 13:25:11;;;;;;;;;;;6.8;50.4;;;;;;;;;
2021/12/07 13:30:08;;;;;;;;;;;6.9;50.4;;;;;;;;;
2021/12/07 13:35:08;;;;;;;;;;;6.9;50.2;;;;;;;;;
2021/12/07 13:40:16;;;;;;;;;;;6.2;51.8;;;;;;;;;
2021/12/07 13:45:09;;;;;;;;;;;6.2;53.1;;;;;;;;;
2021/12/07 13:50:10;;;;;;;;;;;5.9;53.3;;;;;;;;;
2021/12/07 13:55:09;;;;;;;;;;;5.8;52.9;;;;;;;;;
2021/12/07 14:00:10;;;;;;;;;;;6.2;52.8;;;;;;;;;
2021/12/07 14:05:10;;;;;;;;;;;5.8;53.1;;;;;;;;;
2021/12/07 14:10:11;;;;;;;;;;;6.0;52.9;;;;;;;;;
2021/12/07 14:15:10;;;;;;;;;;;5.9;53.1;;;;;;;;;
2021/12/07 14:20:08;;;;;;;;;;;6.1;52.5;;;;;;;;;
2021/12/07 14:25:08;;;;;;;;;;;6.0;52.4;;;;;;;;;
2021/12/07 14:30:11;;;;;;;;;;;6.0;52.4;;;;;;;;;
2021/12/07 14:35:09;;;;;;;;;;;5.6;53.4;;;;;;;;;
2021/12/07 14:40:08;;;;;;;;;;;5.5;53.7;;;;;;;;;
2021/12/07 14:45:09;;;;;;;;;;;5.2;54.2;;;;;;;;;
2021/12/07 14:50:08;;;;;;;;;;;5.1;54.2;;;;;;;;;
2021/12/07 14:55:08;;;;;;;;;;;5.0;54.6;;;;;;;;;
2021/12/07 15:00:09;;;;;;;;;;;5.1;54.5;;;;;;;;;
2021/12/07 15:05:10;;;;;;;;;;;5.1;54.8;;;;;;;;;
2021/12/07 15:10:09;;;;;;;;;;;5.0;55.5;;;;;;;;;
2021/12/07 15:15:09;;;;;;;;;;;4.9;54.8;;;;;;;;;
2021/12/07 15:20:10;;;;;;;;;;;4.8;54.8;;;;;;;;;
2021/12/07 15:25:12;;;;;;;;;;;4.9;55.1;;;;;;;;;
2021/12/07 15:30:08;;;;;;;;;;;4.8;55.2;;;;;;;;;
2021/12/07 15:35:08;;;;;;;;;;;4.7;55.8;;;;;;;;;
2021/12/07 15:40:11;;;;;;;;;;;4.6;55.7;;;;;;;;;
2021/12/07 15:45:09;;;;;;;;;;;4.6;55.9;;;;;;;;;
2021/12/07 15:50:11;;;;;;;;;;;4.6;56.4;;;;;;;;;
2021/12/07 15:55:10;;;;;;;;;;;4.5;56.2;;;;;;;;;
2021/12/07 16:00:09;;;;;;;;;;;4.4;56.9;;;;;;;;;
2021/12/07 16:05:09;;;;;;;;;;;4.3;57.3;;;;;;;;;
2021/12/07 16:10:09;;;;;;;;;;;4.3;57.3;;;;;;;;;
2021/12/07 16:15:10;;;;;;;;;;;4.2;58.2;;;;;;;;;
2021/12/07 16:20:10;;;;;;;;;;;4.2;58.2;;;;;;;;;
2021/12/07 16:25:08;;;;;;;;;;;4.1;58.0;;;;;;;;;
2021/12/07 16:30:09;;;;;;;;;;;4.1;58.5;;;;;;;;;
2021/12/07 16:35:10;;;;;;;;;;;3.9;59.4;;;;;;;;;
2021/12/07 16:40:09;;;;;;;;;;;3.8;59.5;;;;;;;;;
2021/12/07 16:45:09;;;;;;;;;;;3.7;60.5;;;;;;;;;
2021/12/07 16:50:08;;;;;;;;;;;3.6;60.9;;;;;;;;;
2021/12/07 16:55:09;;;;;;;;;;;3.4;61.4;;;;;;;;;
2021/12/07 17:00:10;;;;;;;;;;;3.3;61.4;;;;;;;;;
2021/12/07 17:05:11;;;;;;;;;;;3.2;62.3;;;;;;;;;
2021/12/07 17:10:09;;;;;;;;;;;3.0;62.8;;;;;;;;;
2021/12/07 17:15:08;;;;;;;;;;;2.9;63.1;;;;;;;;;
2021/12/07 17:20:09;;;;;;;;;;;2.9;63.0;;;;;;;;;
2021/12/07 17:25:09;;;;;;;;;;;2.7;62.9;;;;;;;;;
2021/12/07 17:30:10;;;;;;;;;;;2.7;62.8;;;;;;;;;
2021/12/07 17:35:08;;;;;;;;;;;2.5;63.3;;;;;;;;;
2021/12/07 17:40:15;;;;;;;;;;;2.5;63.5;;;;;;;;;
2021/12/07 17:45:08;;;;;;;;;;;2.4;63.7;;;;;;;;;
2021/12/07 17:50:09;;;;;;;;;;;2.2;64.0;;;;;;;;;
2021/12/07 17:55:09;;;;;;;;;;;2.2;64.6;;;;;;;;;
2021/12/07 18:00:09;;;;;;;;;;;2.1;64.7;;;;;;;;;
2021/12/07 18:05:10;;;;;;;;;;;1.9;64.9;;;;;;;;;
2021/12/07 18:10:11;;;;;;;;;;;2.0;65.0;;;;;;;;;
2021/12/07 18:15:09;;;;;;;;;;;1.8;64.8;;;;;;;;;
2021/12/07 18:20:09;;;;;;;;;;;1.8;65.2;;;;;;;;;
2021/12/07 18:30:11;;;;;;;;;;;1.7;65.4;;;;;;;;;
2021/12/07 18:35:09;;;;;;;;;;;1.6;65.3;;;;;;;;;
2021/12/07 18:40:10;;;;;;;;;;;1.5;65.3;;;;;;;;;
2021/12/07 18:45:09;;;;;;;;;;;1.6;64.8;;;;;;;;;
2021/12/07 18:50:09;;;;;;;;;;;1.5;65.0;;;;;;;;;
2021/12/07 18:55:09;;;;;;;;;;;1.4;64.9;;;;;;;;;
2021/12/07 19:00:11;;;;;;;;;;;1.4;64.7;;;;;;;;;
2021/12/07 19:05:09;;;;;;;;;;;1.3;64.5;;;;;;;;;
2021/12/07 19:10:09;;;;;;;;;;;1.3;64.7;;;;;;;;;
2021/12/07 19:15:09;;;;;;;;;;;1.1;65.7;;;;;;;;;
2021/12/07 19:20:09;;;;;;;;;;;1.0;66.0;;;;;;;;;
2021/12/07 19:25:12;;;;;;;;;;;1.0;66.1;;;;;;;;;
2021/12/07 19:30:09;;;;;;;;;;;1.1;66.0;;;;;;;;;
2021/12/07 19:35:08;;;;;;;;;;;1.0;66.1;;;;;;;;;
2021/12/07 19:40:09;;;;;;;;;;;0.9;66.9;;;;;;;;;
2021/12/07 19:45:09;;;;;;;;;;;0.7;66.6;;;;;;;;;
2021/12/07 19:50:11;;;;;;;;;;;0.7;66.9;;;;;;;;;
2021/12/07 19:55:10;;;;;;;;;;;0.8;66.7;;;;;;;;;
2021/12/07 20:00:10;;;;;;;;;;;0.7;67.0;;;;;;;;;
2021/12/07 20:05:10;;;;;;;;;;;0.4;67.6;;;;;;;;;
2021/12/07 20:10:09;;;;;;;;;;;0.3;68.1;;;;;;;;;
2021/12/07 20:15:08;;;;;;;;;;;0.2;68.1;;;;;;;;;
2021/12/07 20:20:09;;;;;;;;;;;0.3;67.8;;;;;;;;;
2021/12/07 20:25:08;;;;;;;;;;;0.2;67.7;;;;;;;;;
2021/12/07 20:30:09;;;;;;;;;;;0.1;67.7;;;;;;;;;
2021/12/07 20:35:08;;;;;;;;;;;0.2;67.0;;;;;;;;;
2021/12/07 20:45:08;;;;;;;;;;;0.3;66.5;;;;;;;;;
2021/12/07 20:50:08;;;;;;;;;;;0.0;66.9;;;;;;;;;
2021/12/07 20:55:08;;;;;;;;;;;-0.1;67.3;;;;;;;;;
2021/12/07 21:00:10;;;;;;;;;;;-0.1;67.9;;;;;;;;;
2021/12/07 21:05:09;;;;;;;;;;;-0.1;67.5;;;;;;;;;
2021/12/07 21:10:25;;;;;;;;;;;-0.1;66.9;;;;;;;;;
2021/12/07 21:15:14;;;;;;;;;;;-0.1;66.6;;;;;;;;;
2021/12/07 21:20:08;;;;;;;;;;;-0.2;66.7;;;;;;;;;
2021/12/07 21:25:08;;;;;;;;;;;-0.2;68.4;;;;;;;;;
2021/12/07 21:30:09;;;;;;;;;;;-0.1;68.4;;;;;;;;;
2021/12/07 21:35:09;;;;;;;;;;;0.1;67.3;;;;;;;;;
2021/12/07 21:40:09;;;;;;;;;;;0.2;66.3;;;;;;;;;
2021/12/07 21:45:09;;;;;;;;;;;0.0;66.0;;;;;;;;;
2021/12/07 21:50:09;;;;;;;;;;;0.0;66.2;;;;;;;;;
2021/12/07 21:55:11;;;;;;;;;;;0.0;66.0;;;;;;;;;
2021/12/07 22:00:09;;;;;;;;;;;-0.3;66.7;;;;;;;;;
2021/12/07 22:05:08;;;;;;;;;;;-0.5;67.2;;;;;;;;;
2021/12/07 22:10:09;;;;;;;;;;;-0.4;67.3;;;;;;;;;
2021/12/07 22:15:09;;;;;;;;;;;-0.5;67.1;;;;;;;;;
2021/12/07 22:20:09;;;;;;;;;;;-0.5;66.7;;;;;;;;;
2021/12/07 22:25:08;;;;;;;;;;;-0.6;66.9;;;;;;;;;
2021/12/07 22:30:09;;;;;;;;;;;-0.7;67.2;;;;;;;;;
2021/12/07 22:35:09;;;;;;;;;;;-0.6;67.2;;;;;;;;;
2021/12/07 22:40:09;;;;;;;;;;;-0.6;67.2;;;;;;;;;
2021/12/07 22:45:08;;;;;;;;;;;-0.9;67.9;;;;;;;;;
2021/12/07 22:50:09;;;;;;;;;;;-1.0;68.0;;;;;;;;;
2021/12/07 22:55:08;;;;;;;;;;;-0.8;67.2;;;;;;;;;
2021/12/07 23:00:16;;;;;;;;;;;-0.8;66.8;;;;;;;;;
2021/12/07 23:05:08;;;;;;;;;;;-0.8;66.8;;;;;;;;;
2021/12/07 23:10:08;;;;;;;;;;;-0.9;66.9;;;;;;;;;
2021/12/07 23:15:09;;;;;;;;;;;-0.9;67.5;;;;;;;;;
2021/12/07 23:20:10;;;;;;;;;;;-1.1;67.2;;;;;;;;;
2021/12/07 23:25:15;;;;;;;;;;;-1.1;66.9;;;;;;;;;
2021/12/07 23:30:08;;;;;;;;;;;-1.1;66.6;;;;;;;;;
2021/12/07 23:35:08;;;;;;;;;;;-1.3;67.0;;;;;;;;;
2021/12/07 23:40:11;;;;;;;;;;;-1.2;66.3;;;;;;;;;
2021/12/07 23:45:11;;;;;;;;;;;-1.2;65.8;;;;;;;;;
2021/12/07 23:50:09;;;;;;;;;;;-1.3;65.3;;;;;;;;;
2021/12/07 23:55:09;;;;;;;;;;;-1.2;65.8;;;;;;;;;
